Terminal Aerodrome Forecast
Issued by NWS

Home | Current Version | Previous Version | Text Only | Print | Product List | Glossary On
Versions: 1 2 3 4 5 6 7 8 9 10 11 12 13 14 15 16 17 18 19 20 21
000
FTUS46 KLOX 040500 RRA
TAFLGB
TAF
KLGB 040541Z 0406/0506 VRB03KT P6SM SKC
     FM041600 03006KT P6SM SKC
     FM042000 VRB06KT P6SM SKC
     FM042300 29008KT P6SM SCT250
     FM050400 VRB03KT P6SM SCT250=

USA.gov is the U.S. government's official web portal to all federal, state and local government web resources and services.